Time;durP1;ratioP1;P1;durP2;ratioP2;P2;SDS_P1;SDS_P2;PMS_P1;PMS_P2;Temp;Humidity;BMP_temperature;BMP_pressure;BME280_temperature;BME280_humidity;BME280_pressure;Samples;Min_cycle;Max_cycle;Signal;HPM_P1;HPM_P2
2022/10/24 00:02:03;;;;;;;3.58;1.95;;;16.70;99.90;;;;;;4958643;28;20500;-65
2022/10/24 00:04:29;;;;;;;9.63;2.45;;;17.00;99.90;;;;;;4975771;28;20039;-65
2022/10/24 00:06:54;;;;;;;4.90;2.15;;;16.50;99.90;;;;;;4975787;28;20049;-64
2022/10/24 00:09:20;;;;;;;3.67;1.90;;;16.70;99.90;;;;;;4957432;28;20046;-65
2022/10/24 00:11:45;;;;;;;7.22;2.28;;;15.90;99.90;;;;;;4958277;28;20505;-64
2022/10/24 00:14:11;;;;;;;6.70;1.77;;;17.20;99.90;;;;;;4958052;28;20045;-64
2022/10/24 00:16:36;;;;;;;8.73;1.60;;;16.50;99.90;;;;;;4975379;28;20122;-64
2022/10/24 00:19:02;;;;;;;8.90;1.90;;;15.90;99.90;;;;;;4958115;28;20055;-64
2022/10/24 00:21:28;;;;;;;8.82;1.90;;;17.30;99.90;;;;;;4975390;28;20097;-64
2022/10/24 00:23:53;;;;;;;4.78;1.30;;;16.00;99.90;;;;;;4958326;28;20050;-63
2022/10/24 00:26:19;;;;;;;2.95;1.50;;;17.20;99.90;;;;;;4975298;28;20488;-64
2022/10/24 00:28:45;;;;;;;7.63;2.03;;;17.20;99.90;;;;;;4973676;28;20117;-63
2022/10/24 00:31:14;;;;;;;4.80;1.52;;;16.20;99.90;;;;;;4957807;28;20452;-63
2022/10/24 00:33:39;;;;;;;8.38;1.60;;;17.30;99.90;;;;;;4957792;28;20055;-64
2022/10/24 00:36:10;;;;;;;9.15;2.08;;;16.40;99.90;;;;;;4957918;28;20046;-63
2022/10/24 00:38:36;;;;;;;4.50;1.80;;;16.20;99.90;;;;;;4975009;28;20097;-64
2022/10/24 00:41:01;;;;;;;2.22;1.30;;;16.30;99.90;;;;;;4974289;28;20047;-64
2022/10/24 00:43:27;;;;;;;7.78;1.88;;;16.30;99.90;;;;;;4975106;28;20100;-64
2022/10/24 00:45:55;;;;;;;9.65;2.60;;;16.30;99.90;;;;;;4957573;28;20078;-64
2022/10/24 00:48:38;;;;;;;5.25;1.50;;;16.20;99.90;;;;;;4957251;28;20046;-64
2022/10/24 00:51:15;;;;;;;12.20;2.10;;;16.30;99.90;;;;;;4957468;28;20074;-64
2022/10/24 00:53:46;;;;;;;5.22;1.70;;;16.30;99.90;;;;;;4974634;28;20047;-64
2022/10/24 00:56:13;;;;;;;5.45;1.50;;;16.70;99.90;;;;;;4957516;28;20046;-64
2022/10/24 00:58:41;;;;;;;8.40;1.95;;;16.50;99.90;;;;;;4957368;28;20057;-63
2022/10/24 01:01:07;;;;;;;10.02;2.08;;;17.20;99.90;;;;;;4974812;28;20046;-63
2022/10/24 01:03:33;;;;;;;4.40;1.35;;;17.20;99.90;;;;;;4974560;28;20092;-64
2022/10/24 01:06:05;;;;;;;10.38;1.80;;;16.70;99.90;;;;;;4957213;28;20043;-63
2022/10/24 01:08:39;;;;;;;8.98;2.58;;;16.80;99.90;;;;;;4957374;28;20539;-63
2022/10/24 01:11:24;;;;;;;5.10;1.65;;;16.50;99.90;;;;;;4957140;28;20041;-64
2022/10/24 01:14:28;;;;;;;9.18;2.10;;;17.10;99.90;;;;;;4956948;28;20050;-64
2022/10/24 01:17:08;;;;;;;7.93;2.15;;;16.20;99.90;;;;;;4969515;28;20049;-64
2022/10/24 01:20:12;;;;;;;5.78;1.83;;;17.30;99.90;;;;;;4958603;28;20117;-63
2022/10/24 01:23:02;;;;;;;11.05;2.58;;;16.30;99.90;;;;;;4974311;28;20409;-64
2022/10/24 01:25:42;;;;;;;6.03;2.10;;;16.70;99.90;;;;;;4973660;28;20035;-64
2022/10/24 01:28:14;;;;;;;9.50;2.63;;;16.30;99.90;;;;;;4957963;28;20043;-64
2022/10/24 01:30:44;;;;;;;5.03;2.10;;;16.70;99.90;;;;;;4938261;29;20067;-63
2022/10/24 01:33:16;;;;;;;4.43;1.63;;;16.80;99.90;;;;;;4937499;29;20097;-64
2022/10/24 01:35:53;;;;;;;9.07;2.53;;;17.60;99.90;;;;;;4937856;29;20071;-64
2022/10/24 01:38:30;;;;;;;10.30;2.50;;;17.30;99.90;;;;;;4937451;29;20048;-64
2022/10/24 01:41:06;;;;;;;12.00;2.30;;;17.60;99.90;;;;;;4954675;29;20051;-63
2022/10/24 01:43:50;;;;;;;8.38;1.90;;;17.60;99.90;;;;;;4966194;28;20054;-64
2022/10/24 01:46:20;;;;;;;6.22;2.58;;;17.60;99.90;;;;;;4943025;28;20047;-64
2022/10/24 01:48:50;;;;;;;7.28;2.40;;;17.60;99.90;;;;;;4973945;28;20047;-64
2022/10/24 01:51:17;;;;;;;3.65;2.00;;;17.20;99.90;;;;;;4940359;28;20077;-65
2022/10/24 01:53:45;;;;;;;9.75;2.33;;;17.70;99.90;;;;;;4973579;28;20130;-63
2022/10/24 01:56:10;;;;;;;8.65;2.25;;;17.80;99.90;;;;;;4956249;28;20050;-64
2022/10/24 01:58:36;;;;;;;8.40;2.03;;;17.50;99.90;;;;;;4956244;28;20513;-64
2022/10/24 02:01:06;;;;;;;9.63;2.40;;;16.70;99.90;;;;;;4973859;28;20039;-64
2022/10/24 02:03:40;;;;;;;7.13;2.28;;;17.80;99.90;;;;;;4942662;29;20047;-65
2022/10/24 02:06:15;;;;;;;8.25;1.90;;;16.60;99.90;;;;;;4937020;29;20058;-64
2022/10/24 02:08:45;;;;;;;5.97;1.98;;;17.30;99.90;;;;;;4936299;29;20101;-64
2022/10/24 02:11:11;;;;;;;11.30;2.38;;;17.90;99.90;;;;;;4936949;29;20106;-64
2022/10/24 02:13:51;;;;;;;5.70;2.60;;;17.90;99.90;;;;;;4936701;29;20485;-64
2022/10/24 02:16:19;;;;;;;6.20;2.20;;;16.60;99.90;;;;;;4953911;29;20055;-64
2022/10/24 02:18:47;;;;;;;9.85;1.98;;;17.90;99.90;;;;;;4936776;29;20051;-65
2022/10/24 02:21:50;;;;;;;8.98;2.72;;;17.60;99.90;;;;;;4952872;28;20047;-64
2022/10/24 02:24:23;;;;;;;7.47;2.30;;;17.30;99.90;;;;;;4955878;28;20050;-64
2022/10/24 02:27:13;;;;;;;9.98;2.35;;;17.30;99.90;;;;;;4955384;28;20055;-64
2022/10/24 02:30:04;;;;;;;8.27;2.30;;;17.50;99.90;;;;;;4955476;28;20167;-64
2022/10/24 02:32:37;;;;;;;6.07;2.40;;;17.70;99.90;;;;;;4955958;28;20055;-65
2022/10/24 02:35:05;;;;;;;11.18;2.60;;;17.90;99.90;;;;;;4973164;28;20041;-63
2022/10/24 02:37:35;;;;;;;8.18;2.45;;;17.70;99.90;;;;;;4955892;28;20042;-64
2022/10/24 02:40:04;;;;;;;6.93;2.30;;;17.40;99.90;;;;;;4972773;28;20129;-64
2022/10/24 02:42:31;;;;;;;6.20;2.00;;;17.30;99.90;;;;;;4955582;28;20129;-64
2022/10/24 02:44:58;;;;;;;12.65;2.35;;;16.70;99.90;;;;;;4955708;28;20050;-64
2022/10/24 02:47:25;;;;;;;11.02;2.50;;;16.40;99.90;;;;;;4955367;28;20094;-64
2022/10/24 02:49:51;;;;;;;8.18;2.50;;;17.20;99.90;;;;;;4972815;28;20082;-64
2022/10/24 02:52:17;;;;;;;11.23;2.67;;;16.50;99.90;;;;;;4954070;28;20053;-65
2022/10/24 02:54:43;;;;;;;11.32;2.30;;;17.60;99.90;;;;;;4955347;28;20050;-64
2022/10/24 02:57:08;;;;;;;11.50;3.30;;;16.50;99.90;;;;;;4972829;28;20400;-64
2022/10/24 02:59:34;;;;;;;10.07;2.30;;;16.70;99.90;;;;;;4972673;28;20043;-64
2022/10/24 03:01:59;;;;;;;6.82;1.90;;;17.40;99.90;;;;;;4972938;28;20035;-64
2022/10/24 03:04:25;;;;;;;6.80;2.17;;;16.70;99.90;;;;;;4972622;28;20062;-64
2022/10/24 03:06:52;;;;;;;22.52;2.90;;;17.20;99.90;;;;;;4955593;28;20094;-64
2022/10/24 03:09:17;;;;;;;5.63;1.88;;;16.80;99.90;;;;;;4972404;28;20435;-64
2022/10/24 03:11:43;;;;;;;10.15;2.38;;;17.60;99.90;;;;;;4955335;28;20043;-65
2022/10/24 03:14:08;;;;;;;7.97;2.15;;;17.20;99.90;;;;;;4972457;28;20086;-64
2022/10/24 03:16:34;;;;;;;11.40;2.25;;;17.20;99.90;;;;;;4955119;28;20042;-64
2022/10/24 03:19:00;;;;;;;12.38;2.22;;;17.90;99.90;;;;;;4955247;28;20058;-64
2022/10/24 03:21:25;;;;;;;9.02;1.90;;;17.30;99.90;;;;;;4974441;28;20078;-64
2022/10/24 03:23:51;;;;;;;13.18;2.53;;;17.30;99.90;;;;;;4956985;29;20102;-64
2022/10/24 03:26:17;;;;;;;20.65;3.55;;;17.20;99.90;;;;;;4924267;29;20043;-64
2022/10/24 03:28:42;;;;;;;4.53;2.15;;;17.60;99.90;;;;;;4957198;29;20051;-64
2022/10/24 03:31:08;;;;;;;9.30;2.15;;;17.20;99.90;;;;;;4939858;29;20045;-64
2022/10/24 03:33:33;;;;;;;10.20;3.05;;;17.40;99.90;;;;;;4939515;29;20051;-64
2022/10/24 03:35:59;;;;;;;5.82;1.65;;;17.60;99.90;;;;;;4940063;29;20054;-66
2022/10/24 03:38:25;;;;;;;6.30;1.65;;;17.00;99.90;;;;;;4956802;29;20050;-64
2022/10/24 03:40:51;;;;;;;6.30;2.13;;;17.50;99.90;;;;;;4939694;29;20498;-66
2022/10/24 03:43:17;;;;;;;6.28;1.98;;;17.40;99.90;;;;;;4939465;29;20162;-64
2022/10/24 03:45:43;;;;;;;7.13;2.38;;;16.80;99.90;;;;;;4940582;28;20039;-64
2022/10/24 03:48:09;;;;;;;9.38;2.28;;;16.70;99.90;;;;;;4958701;28;20070;-64
2022/10/24 03:50:35;;;;;;;8.25;1.98;;;16.70;99.90;;;;;;4958619;28;20032;-64
2022/10/24 03:53:00;;;;;;;5.95;1.60;;;17.10;99.90;;;;;;4944983;29;20114;-64
2022/10/24 03:55:27;;;;;;;7.15;2.03;;;16.80;99.90;;;;;;4956482;29;20043;-64
2022/10/24 03:57:53;;;;;;;8.38;2.28;;;17.20;99.90;;;;;;4956549;29;20054;-64
2022/10/24 04:00:19;;;;;;;7.75;2.03;;;16.60;99.90;;;;;;4923397;29;20042;-64
2022/10/24 04:02:45;;;;;;;6.30;1.98;;;16.50;99.90;;;;;;4939108;29;20742;-64
2022/10/24 04:05:11;;;;;;;12.32;2.17;;;16.70;99.90;;;;;;4939215;29;20078;-65
2022/10/24 04:07:37;;;;;;;6.00;2.45;;;16.50;99.90;;;;;;4939152;29;20113;-64
2022/10/24 04:10:03;;;;;;;9.48;1.90;;;16.70;99.90;;;;;;4938865;29;20047;-64
2022/10/24 04:12:29;;;;;;;6.40;1.80;;;16.50;99.90;;;;;;4939124;29;20524;-65
2022/10/24 04:14:55;;;;;;;7.03;1.83;;;16.50;99.90;;;;;;4938872;29;20047;-64
2022/10/24 04:17:21;;;;;;;13.95;2.35;;;16.50;99.90;;;;;;4938795;29;20044;-65
2022/10/24 04:19:46;;;;;;;8.00;2.05;;;16.60;99.90;;;;;;4943750;28;20057;-64
2022/10/24 04:22:12;;;;;;;8.02;2.03;;;16.30;99.90;;;;;;4968750;28;20047;-64
2022/10/24 04:24:38;;;;;;;3.40;1.52;;;16.50;99.90;;;;;;4956090;29;20039;-64
2022/10/24 04:27:05;;;;;;;5.97;1.83;;;16.90;99.90;;;;;;4939086;28;20512;-64
2022/10/24 04:29:30;;;;;;;6.68;1.90;;;16.50;99.90;;;;;;4938861;29;20050;-66
2022/10/24 04:31:56;;;;;;;8.90;2.13;;;16.80;99.90;;;;;;4955772;28;20047;-64
2022/10/24 04:34:22;;;;;;;4.70;1.90;;;17.00;99.90;;;;;;4938631;29;20050;-65
2022/10/24 04:36:47;;;;;;;8.20;1.85;;;16.60;99.90;;;;;;4955991;29;20031;-64
2022/10/24 04:39:13;;;;;;;3.78;1.65;;;17.00;99.90;;;;;;4938377;29;20456;-65
2022/10/24 04:41:38;;;;;;;4.88;1.52;;;16.90;99.90;;;;;;4938874;29;20379;-64
2022/10/24 04:44:04;;;;;;;6.97;2.10;;;16.50;99.90;;;;;;4938622;29;20035;-64
2022/10/24 04:46:29;;;;;;;7.13;1.60;;;16.90;99.90;;;;;;4945528;28;20046;-64
2022/10/24 04:48:55;;;;;;;5.45;1.73;;;17.10;99.90;;;;;;4957606;28;20049;-65
2022/10/24 04:51:20;;;;;;;9.40;2.05;;;16.80;99.90;;;;;;4952072;28;20058;-65
2022/10/24 04:53:46;;;;;;;11.30;2.22;;;17.20;99.90;;;;;;4974605;28;20038;-64
2022/10/24 04:56:11;;;;;;;6.45;1.80;;;16.90;99.90;;;;;;4970401;28;20052;-64
2022/10/24 04:58:37;;;;;;;5.85;1.60;;;16.90;99.90;;;;;;4963674;28;20039;-65
2022/10/24 05:01:03;;;;;;;3.72;1.42;;;17.00;99.90;;;;;;4955646;29;20046;-64
2022/10/24 05:03:28;;;;;;;5.22;1.90;;;17.10;99.90;;;;;;4940230;28;20043;-64
2022/10/24 05:05:54;;;;;;;8.02;1.80;;;16.70;99.90;;;;;;4943973;29;20409;-64
2022/10/24 05:08:19;;;;;;;6.75;1.48;;;17.10;99.90;;;;;;4945923;28;20051;-65
2022/10/24 05:10:45;;;;;;;7.05;2.10;;;17.10;99.90;;;;;;4927190;28;20460;-65
2022/10/24 05:13:11;;;;;;;7.43;1.60;;;17.10;99.90;;;;;;4956711;28;20038;-64
2022/10/24 05:15:36;;;;;;;4.43;1.55;;;16.80;99.90;;;;;;4956877;28;20485;-64
2022/10/24 05:18:02;;;;;;;10.05;1.77;;;16.80;99.90;;;;;;4953858;28;20122;-64
2022/10/24 05:20:27;;;;;;;5.20;1.45;;;16.80;99.90;;;;;;4944255;28;20477;-64
2022/10/24 05:22:53;;;;;;;5.45;1.70;;;17.10;99.90;;;;;;4964521;28;20093;-64
2022/10/24 05:25:19;;;;;;;6.95;1.80;;;17.00;99.90;;;;;;4973414;28;20477;-63
2022/10/24 05:27:44;;;;;;;5.47;1.38;;;16.90;99.90;;;;;;4959666;28;20094;-64
2022/10/24 05:30:10;;;;;;;6.13;1.83;;;16.90;99.90;;;;;;4949480;28;20304;-64
2022/10/24 05:32:37;;;;;;;5.15;1.52;;;16.90;99.90;;;;;;4921769;29;20043;-64
2022/10/24 05:35:03;;;;;;;4.30;1.88;;;16.60;99.90;;;;;;4937809;29;20054;-64
2022/10/24 05:37:28;;;;;;;4.40;1.58;;;16.90;99.90;;;;;;4955002;29;20085;-64
2022/10/24 05:39:54;;;;;;;6.97;1.73;;;16.70;99.90;;;;;;4938351;29;20517;-64
2022/10/24 05:42:19;;;;;;;5.60;1.63;;;16.90;99.90;;;;;;4937140;29;20387;-64
2022/10/24 05:44:45;;;;;;;4.70;1.55;;;16.70;99.90;;;;;;4937139;29;20105;-64
2022/10/24 05:47:11;;;;;;;7.10;1.98;;;16.40;99.90;;;;;;4966573;28;20039;-64
2022/10/24 05:49:36;;;;;;;13.43;1.80;;;16.30;99.90;;;;;;4948168;29;20399;-64
2022/10/24 05:52:02;;;;;;;8.23;2.15;;;16.50;99.90;;;;;;4938530;28;20492;-66
2022/10/24 05:54:28;;;;;;;8.55;1.83;;;16.40;99.90;;;;;;4949410;29;20035;-64
2022/10/24 05:56:53;;;;;;;6.45;1.80;;;16.30;99.90;;;;;;4941483;28;20035;-64
2022/10/24 05:59:19;;;;;;;16.58;2.17;;;16.50;99.90;;;;;;4968152;28;20034;-64
2022/10/24 06:01:44;;;;;;;11.70;2.08;;;16.40;99.90;;;;;;4954554;28;20083;-65
2022/10/24 06:04:10;;;;;;;6.40;1.73;;;16.50;99.90;;;;;;4954585;28;20086;-64
2022/10/24 06:06:40;;;;;;;10.40;1.67;;;16.20;99.90;;;;;;4954347;29;20508;-65
2022/10/24 06:09:06;;;;;;;4.30;1.20;;;16.10;99.90;;;;;;4946805;28;20061;-64
2022/10/24 06:11:31;;;;;;;5.25;1.60;;;16.30;99.90;;;;;;4955567;28;20042;-65
2022/10/24 06:13:57;;;;;;;4.55;1.52;;;16.50;99.90;;;;;;4959393;28;20058;-64
2022/10/24 06:16:24;;;;;;;7.20;1.70;;;16.20;99.90;;;;;;4965090;28;20121;-64
2022/10/24 06:18:49;;;;;;;6.63;1.50;;;16.20;99.90;;;;;;4950876;28;20043;-65
2022/10/24 06:21:15;;;;;;;7.35;1.15;;;16.40;99.90;;;;;;4942766;28;20069;-64
2022/10/24 06:23:41;;;;;;;6.90;2.00;;;16.40;99.90;;;;;;4971025;28;20143;-64
2022/10/24 06:26:10;;;;;;;8.30;1.80;;;16.50;99.90;;;;;;4973157;28;20066;-64
2022/10/24 06:28:37;;;;;;;9.48;2.13;;;16.50;99.90;;;;;;4973554;28;20041;-64
2022/10/24 06:31:03;;;;;;;10.30;1.70;;;16.20;99.90;;;;;;4952695;28;20400;-63
2022/10/24 06:33:30;;;;;;;6.63;1.58;;;16.20;99.90;;;;;;4973066;28;20149;-64
2022/10/24 06:35:59;;;;;;;7.90;1.75;;;16.60;99.90;;;;;;4973564;28;20034;-64
2022/10/24 06:38:24;;;;;;;8.70;1.83;;;16.70;99.90;;;;;;4955714;28;20043;-64
2022/10/24 06:40:50;;;;;;;8.80;2.15;;;16.40;99.90;;;;;;4973478;28;20113;-65
2022/10/24 06:43:18;;;;;;;3.53;1.02;;;16.40;99.90;;;;;;4955787;28;20515;-67
2022/10/24 06:45:44;;;;;;;10.55;2.38;;;16.70;99.90;;;;;;4970514;28;20046;-65
2022/10/24 06:48:10;;;;;;;3.63;1.55;;;16.80;99.90;;;;;;4967883;28;20046;-64
2022/10/24 06:50:38;;;;;;;5.70;1.48;;;16.70;99.90;;;;;;4963450;28;20097;-65
2022/10/24 06:53:04;;;;;;;4.25;1.40;;;16.90;99.90;;;;;;4958164;28;20063;-64
2022/10/24 06:55:29;;;;;;;5.60;1.45;;;17.00;99.90;;;;;;4965738;28;20085;-63
2022/10/24 06:57:55;;;;;;;7.28;1.90;;;16.70;99.90;;;;;;4962836;28;20370;-64
2022/10/24 07:00:20;;;;;;;4.78;1.25;;;17.30;99.90;;;;;;4971142;28;20875;-64
2022/10/24 07:02:46;;;;;;;5.05;1.60;;;17.00;99.90;;;;;;4966520;28;20050;-65
2022/10/24 07:05:13;;;;;;;4.03;1.25;;;17.10;99.90;;;;;;4963102;28;20047;-63
2022/10/24 07:07:41;;;;;;;5.22;1.10;;;16.80;99.90;;;;;;4961836;28;20046;-65
2022/10/24 07:10:08;;;;;;;12.20;1.55;;;17.00;99.90;;;;;;4957118;28;20054;-64
2022/10/24 07:12:34;;;;;;;5.13;1.42;;;17.00;99.90;;;;;;4971796;28;20054;-64
2022/10/24 07:15:00;;;;;;;5.15;1.73;;;17.00;99.90;;;;;;4973003;28;20031;-65
2022/10/24 07:17:25;;;;;;;7.18;1.80;;;17.10;99.90;;;;;;4969478;28;20046;-64
2022/10/24 07:19:55;;;;;;;6.22;1.40;;;17.10;99.90;;;;;;4950904;28;20063;-64
2022/10/24 07:22:21;;;;;;;4.75;1.30;;;17.10;99.90;;;;;;4965104;28;20038;-64
2022/10/24 07:24:54;;;;;;;4.30;1.30;;;17.00;99.90;;;;;;4958823;28;20039;-64
2022/10/24 07:27:20;;;;;;;6.60;1.70;;;16.60;99.90;;;;;;4953297;28;20089;-63
2022/10/24 07:29:50;;;;;;;15.43;2.42;;;16.80;99.90;;;;;;4954271;28;20066;-63
2022/10/24 07:32:16;;;;;;;8.45;1.48;;;16.80;99.90;;;;;;4945455;29;20405;-63
2022/10/24 07:34:42;;;;;;;7.00;1.45;;;16.80;99.90;;;;;;4953321;28;20055;-64
2022/10/24 07:37:07;;;;;;;5.40;1.13;;;16.40;99.90;;;;;;4970108;28;20043;-64
2022/10/24 07:39:33;;;;;;;9.10;2.30;;;16.70;99.90;;;;;;4969023;28;20054;-64
2022/10/24 07:41:58;;;;;;;7.68;1.73;;;16.50;99.90;;;;;;4960872;28;20053;-64
2022/10/24 07:44:24;;;;;;;9.75;1.70;;;16.50;99.90;;;;;;4969060;28;20042;-65
2022/10/24 07:46:49;;;;;;;7.45;1.73;;;16.80;99.90;;;;;;4945629;28;20432;-65
2022/10/24 07:49:15;;;;;;;3.53;1.23;;;17.20;99.90;;;;;;4970775;28;20441;-64
2022/10/24 07:51:41;;;;;;;3.42;1.20;;;17.20;99.90;;;;;;4940852;28;20035;-65
2022/10/24 07:54:07;;;;;;;7.60;2.10;;;17.30;99.90;;;;;;4955291;28;20062;-65
2022/10/24 07:56:33;;;;;;;4.35;1.58;;;17.20;99.90;;;;;;4972418;28;20039;-64
2022/10/24 07:58:59;;;;;;;6.75;1.73;;;17.30;99.90;;;;;;4938799;28;20031;-64
2022/10/24 08:01:26;;;;;;;5.60;1.58;;;16.90;99.90;;;;;;4956794;28;20038;-65
2022/10/24 08:03:52;;;;;;;14.68;2.55;;;16.90;99.90;;;;;;4961904;28;20078;-65
2022/10/24 08:06:21;;;;;;;6.20;1.88;;;17.30;99.90;;;;;;4951390;28;20042;-64
2022/10/24 08:08:46;;;;;;;7.03;1.85;;;17.40;99.90;;;;;;4968591;28;20063;-65
2022/10/24 08:11:18;;;;;;;9.27;1.83;;;17.10;99.90;;;;;;4955882;28;20050;-64
2022/10/24 08:13:44;;;;;;;5.35;1.33;;;17.50;99.90;;;;;;4969771;28;20512;-65
2022/10/24 08:16:12;;;;;;;4.75;1.60;;;17.50;99.90;;;;;;4975668;28;20055;-63
2022/10/24 08:18:38;;;;;;;7.70;1.83;;;17.30;99.90;;;;;;4957695;28;20043;-64
2022/10/24 08:21:06;;;;;;;6.60;1.75;;;17.70;99.90;;;;;;4953866;28;20051;-64
2022/10/24 08:23:34;;;;;;;9.70;2.20;;;17.70;99.90;;;;;;4945166;29;20520;-63
2022/10/24 08:26:02;;;;;;;5.65;1.63;;;17.70;99.90;;;;;;4956370;28;20075;-65
2022/10/24 08:28:28;;;;;;;8.43;1.70;;;17.30;99.90;;;;;;4940313;29;20134;-64
2022/10/24 08:30:55;;;;;;;8.73;1.83;;;17.30;99.90;;;;;;4947345;28;20548;-66
2022/10/24 08:33:20;;;;;;;6.72;2.00;;;17.40;99.90;;;;;;4948492;29;20043;-64
2022/10/24 08:35:46;;;;;;;9.05;1.70;;;17.40;99.90;;;;;;4962256;28;20097;-64
2022/10/24 08:38:11;;;;;;;4.00;1.50;;;17.30;99.90;;;;;;4969504;28;20040;-66
2022/10/24 08:40:38;;;;;;;9.27;2.08;;;17.20;99.90;;;;;;4952198;28;20133;-65
2022/10/24 08:43:04;;;;;;;6.85;1.98;;;17.50;99.90;;;;;;4951746;28;20074;-64
2022/10/24 08:45:41;;;;;;;5.72;1.60;;;17.00;99.90;;;;;;4974909;28;20475;-64
2022/10/24 08:48:11;;;;;;;6.00;2.05;;;17.60;99.90;;;;;;4945647;29;20054;-65
2022/10/24 08:50:42;;;;;;;4.03;1.65;;;17.30;99.90;;;;;;4967079;28;20130;-64
2022/10/24 08:53:34;;;;;;;9.60;2.08;;;17.50;99.90;;;;;;4953577;28;20055;-64
2022/10/24 08:56:03;;;;;;;5.75;1.88;;;17.20;99.90;;;;;;4944501;28;20046;-64
2022/10/24 08:58:43;;;;;;;12.07;2.00;;;17.20;99.90;;;;;;4951680;28;20042;-64
2022/10/24 09:01:30;;;;;;;7.45;2.03;;;17.40;99.90;;;;;;4956413;28;20043;-64
2022/10/24 09:04:00;;;;;;;5.65;1.52;;;17.50;99.90;;;;;;4946401;28;20465;-64
2022/10/24 09:06:28;;;;;;;9.45;2.22;;;17.30;99.90;;;;;;4937173;28;20058;-64
2022/10/24 09:08:56;;;;;;;5.97;1.55;;;16.70;99.90;;;;;;4960208;28;20126;-65
2022/10/24 09:11:48;;;;;;;7.72;1.70;;;17.00;99.90;;;;;;4969156;28;20464;-64
2022/10/24 09:14:20;;;;;;;7.72;2.00;;;16.40;99.90;;;;;;4974654;28;20053;-65
2022/10/24 09:16:51;;;;;;;8.13;2.28;;;16.50;99.90;;;;;;4937508;28;20397;-66
2022/10/24 09:19:20;;;;;;;11.48;2.35;;;16.80;99.90;;;;;;4943267;28;20118;-64
2022/10/24 09:21:47;;;;;;;11.63;2.63;;;17.10;99.90;;;;;;4944406;29;20067;-65
2022/10/24 09:24:41;;;;;;;10.68;2.25;;;17.40;99.90;;;;;;4955433;29;20043;-65
2022/10/24 09:27:16;;;;;;;11.70;3.08;;;18.10;99.90;;;;;;4938496;29;20568;-65
2022/10/24 09:29:42;;;;;;;11.50;2.22;;;17.90;99.90;;;;;;4961568;28;20051;-64
2022/10/24 09:32:16;;;;;;;11.63;2.72;;;18.10;99.90;;;;;;4949819;28;20050;-63
2022/10/24 09:34:41;;;;;;;14.45;2.75;;;17.90;99.90;;;;;;4950853;28;20050;-64
2022/10/24 09:37:27;;;;;;;9.50;2.38;;;18.10;99.90;;;;;;4941373;28;20039;-65
2022/10/24 09:40:08;;;;;;;14.93;3.08;;;18.20;99.90;;;;;;4968009;28;20047;-64
2022/10/24 09:42:36;;;;;;;10.95;2.22;;;18.10;99.90;;;;;;4953582;28;20066;-64
2022/10/24 09:45:35;;;;;;;12.00;3.00;;;18.00;99.90;;;;;;4970361;28;20094;-64
2022/10/24 09:48:06;;;;;;;13.02;3.03;;;17.40;99.90;;;;;;4973357;28;20070;-64
2022/10/24 09:50:34;;;;;;;10.43;2.90;;;17.30;99.90;;;;;;4942164;29;20489;-64
2022/10/24 09:53:02;;;;;;;9.57;2.45;;;17.70;99.90;;;;;;4970133;28;20055;-64
2022/10/24 09:55:29;;;;;;;6.60;1.90;;;17.80;99.90;;;;;;4943837;28;20066;-65
2022/10/24 09:57:59;;;;;;;7.18;2.03;;;18.00;99.90;;;;;;4973890;28;20481;-64
2022/10/24 10:00:42;;;;;;;11.27;2.53;;;18.40;99.90;;;;;;4971270;28;20042;-64
2022/10/24 10:03:17;;;;;;;15.05;2.08;;;17.90;99.90;;;;;;4970186;28;20102;-64
2022/10/24 10:05:44;;;;;;;14.05;2.92;;;18.20;99.90;;;;;;4961374;28;20054;-64
2022/10/24 10:08:17;;;;;;;10.98;2.75;;;18.30;99.90;;;;;;4937250;29;20127;-64
2022/10/24 10:10:53;;;;;;;15.98;2.80;;;17.90;99.90;;;;;;4966250;28;20039;-64
2022/10/24 10:13:23;;;;;;;;;;;18.00;99.90;;;;;;4956621;28;20039;-64
2022/10/24 10:16:01;;;;;;;13.73;3.08;;;17.90;99.90;;;;;;4956208;28;19973;-64
2022/10/24 10:18:38;;;;;;;8.65;2.10;;;18.10;99.90;;;;;;4937072;29;20391;-65
2022/10/24 10:21:06;;;;;;;15.50;2.95;;;18.40;99.90;;;;;;4952233;28;20050;-64
2022/10/24 10:23:39;;;;;;;9.68;2.78;;;18.50;99.90;;;;;;4973408;28;20513;-63
2022/10/24 10:26:12;;;;;;;9.20;2.70;;;18.40;99.90;;;;;;4933408;29;20466;-64
2022/10/24 10:28:44;;;;;;;11.20;2.45;;;18.40;99.90;;;;;;4954069;28;20543;-64
2022/10/24 10:31:10;;;;;;;14.50;3.08;;;17.80;99.90;;;;;;4956429;28;20516;-65
2022/10/24 10:33:50;;;;;;;10.98;2.40;;;17.90;99.90;;;;;;4955749;28;20039;-65
2022/10/24 10:36:23;;;;;;;12.30;2.30;;;18.00;99.90;;;;;;4965248;28;20464;-63
2022/10/24 10:39:08;;;;;;;7.57;2.88;;;18.10;99.90;;;;;;4954429;29;20410;-64
2022/10/24 10:42:05;;;;;;;16.50;3.00;;;18.20;99.90;;;;;;4973586;28;20129;-65
2022/10/24 10:44:45;;;;;;;12.95;2.78;;;18.40;99.90;;;;;;4969165;28;20085;-65
2022/10/24 10:47:36;;;;;;;7.45;2.47;;;18.40;99.90;;;;;;4965142;28;20038;-65
2022/10/24 10:50:25;;;;;;;21.30;3.35;;;18.10;99.90;;;;;;4941998;28;20050;-64
2022/10/24 10:52:56;;;;;;;13.18;3.75;;;18.10;99.90;;;;;;4968761;28;20079;-65
2022/10/24 10:55:23;;;;;;;11.45;3.03;;;18.20;99.90;;;;;;4938300;28;20047;-64
2022/10/24 10:58:10;;;;;;;11.15;2.78;;;17.80;99.90;;;;;;4972631;28;20038;-64
2022/10/24 11:01:15;;;;;;;14.63;3.65;;;17.50;99.90;;;;;;4955045;28;20039;-65
2022/10/24 11:03:57;;;;;;;21.02;4.15;;;17.40;99.90;;;;;;4968157;28;20054;-64
2022/10/24 11:06:41;;;;;;;18.35;3.80;;;17.20;99.90;;;;;;4961858;28;20127;-64
2022/10/24 11:09:45;;;;;;;13.68;2.75;;;17.00;99.90;;;;;;4953512;28;20094;-64
2022/10/24 11:12:25;;;;;;;18.48;4.38;;;17.70;99.90;;;;;;4967061;28;20081;-65
2022/10/24 11:15:02;;;;;;;12.75;3.47;;;17.80;99.90;;;;;;4952831;28;20045;-65
2022/10/24 11:17:42;;;;;;;13.60;3.33;;;18.10;99.90;;;;;;4954806;28;20055;-64
2022/10/24 11:20:32;;;;;;;18.35;3.35;;;18.10;99.90;;;;;;4968613;28;20066;-64
2022/10/24 11:23:03;;;;;;;12.68;3.35;;;18.10;99.90;;;;;;4941096;28;20053;-65
2022/10/24 11:25:35;;;;;;;15.05;3.70;;;18.30;99.90;;;;;;4944344;28;20084;-64
2022/10/24 11:28:19;;;;;;;14.95;3.50;;;18.00;99.90;;;;;;4962740;28;20047;-64
2022/10/24 11:31:06;;;;;;;10.45;2.90;;;17.80;99.90;;;;;;4957037;28;20150;-65
2022/10/24 11:33:45;;;;;;;14.48;2.95;;;17.30;99.90;;;;;;4972755;28;20047;-64
2022/10/24 11:36:22;;;;;;;9.35;2.65;;;17.20;99.90;;;;;;4965757;28;20035;-64
2022/10/24 11:38:58;;;;;;;15.38;2.65;;;16.90;99.90;;;;;;4964474;28;20444;-64
2022/10/24 11:41:31;;;;;;;12.80;3.25;;;17.30;99.90;;;;;;4967643;28;20039;-64
2022/10/24 11:44:02;;;;;;;12.60;3.70;;;17.10;99.90;;;;;;4968522;28;20126;-64
2022/10/24 11:46:39;;;;;;;11.77;3.00;;;17.00;99.90;;;;;;4950409;28;20371;-63
2022/10/24 11:49:17;;;;;;;11.82;3.45;;;16.30;99.90;;;;;;4971060;28;20105;-63
2022/10/24 11:51:50;;;;;;;13.05;2.95;;;16.80;99.90;;;;;;4973499;28;20078;-64
2022/10/24 11:54:24;;;;;;;15.18;2.92;;;16.50;99.90;;;;;;4964963;28;20083;-65
2022/10/24 11:56:55;;;;;;;17.55;3.55;;;16.80;99.90;;;;;;4975746;28;20555;-63
2022/10/24 11:59:24;;;;;;;16.65;2.97;;;16.70;99.90;;;;;;4965610;28;20377;-64
2022/10/24 12:02:16;;;;;;;24.23;3.40;;;17.90;99.90;;;;;;4969222;28;20038;-63
2022/10/24 12:05:05;;;;;;;20.13;3.10;;;17.20;99.90;;;;;;4956663;28;20046;-64
2022/10/24 12:07:52;;;;;;;21.30;3.30;;;17.20;99.90;;;;;;4963151;28;20049;-64
2022/10/24 12:10:32;;;;;;;16.33;2.60;;;17.30;99.90;;;;;;4967278;28;20038;-64
2022/10/24 12:13:33;;;;;;;9.32;2.45;;;17.90;99.90;;;;;;4964194;28;20034;-64
2022/10/24 12:16:02;;;;;;;15.45;2.95;;;18.10;99.90;;;;;;4947645;28;20071;-64
2022/10/24 12:18:34;;;;;;;13.15;3.17;;;18.00;99.90;;;;;;4949741;29;20063;-63
2022/10/24 12:21:40;;;;;;;13.93;2.58;;;17.90;99.90;;;;;;4971976;28;20062;-64
2022/10/24 12:24:32;;;;;;;18.85;3.05;;;17.70;99.90;;;;;;4966402;28;20058;-64
2022/10/24 12:27:01;;;;;;;14.23;2.85;;;17.50;99.90;;;;;;4958156;28;20043;-64
2022/10/24 12:29:30;;;;;;;16.15;2.63;;;18.10;99.90;;;;;;4956133;28;20081;-64
2022/10/24 12:31:57;;;;;;;13.65;2.33;;;17.50;99.90;;;;;;4971041;28;20456;-64
2022/10/24 12:34:23;;;;;;;11.25;2.35;;;17.70;99.90;;;;;;4972842;28;20039;-64
2022/10/24 12:37:08;;;;;;;8.82;2.50;;;16.80;99.90;;;;;;4973108;28;20070;-64
2022/10/24 12:39:53;;;;;;;7.55;2.10;;;17.10;99.90;;;;;;4966719;28;20061;-63
2022/10/24 12:42:18;;;;;;;10.73;2.72;;;17.10;99.90;;;;;;4943795;28;20050;-64
2022/10/24 12:44:46;;;;;;;8.55;2.28;;;17.10;99.90;;;;;;4964247;28;20035;-64
2022/10/24 12:48:03;;;;;;;17.15;3.10;;;16.50;99.90;;;;;;4968038;28;20373;-64
2022/10/24 12:50:28;;;;;;;10.23;2.17;;;16.40;99.90;;;;;;4965545;28;20035;-64
2022/10/24 12:53:14;;;;;;;16.80;2.50;;;16.20;99.90;;;;;;4942456;29;20055;-64
2022/10/24 12:55:39;;;;;;;18.75;2.70;;;16.30;99.90;;;;;;4963896;28;20445;-64
2022/10/24 12:58:44;;;;;;;18.23;2.97;;;16.50;99.90;;;;;;4966536;28;20050;-64
2022/10/24 13:01:33;;;;;;;23.63;3.20;;;17.00;99.90;;;;;;4914375;29;20051;-63
2022/10/24 13:04:40;;;;;;;17.88;2.85;;;17.00;99.90;;;;;;4885059;29;20051;-63